Skip to main content
NYSE:CNS

Cohen & Steers Institutional Ownership

$72.28
+0.23 (+0.32 %)
(As of 05/14/2021 12:57 PM ET)
Add
Compare
Today's Range
$71.82
$72.40
50-Day Range
$64.31
$71.75
52-Week Range
$54.03
$78.82
Volume1,421 shs
Average Volume130,114 shs
Market Capitalization$3.49 billion
P/E Ratio29.87
Dividend Yield2.60%
Beta1.36

Institutional Ownership

Institutional Ownership Changes (13F Filings) for Cohen & Steers (NYSE:CNS)

Institutional Ownership Percentage: 44.91%

Institutional Buying and Selling by Quarter


Cohen & Steers (NYSE CNS) Institutional Buying and Selling

Reporting DateHedge FundShares HeldMarket Value% of PortfolioQuarterly Change in SharesOwnership in Company
5/14/2021Dimensional Fund Advisors LP1,039,583$67.92M0.0%-2.0%2.155%
5/14/2021XTX Topco Ltd5,467$0.36M0.2%N/A0.011%
5/14/2021Nicholas Company Inc.174,130$11.38M0.2%-1.8%0.361%
5/14/2021UBS Asset Management Americas Inc.22,424$1.47M0.0%-14.5%0.046%
5/14/2021Stifel Financial Corp8,717$0.57M0.0%+5.9%0.018%
5/14/2021Credit Suisse AG20,703$1.35M0.0%+4.7%0.043%
5/13/2021Clearbridge Investments LLC1,419,837$92.76M0.1%0.0%2.943%
5/13/2021QS Investors LLC9,935$0.65M0.0%-10.9%0.021%
5/13/2021SG Americas Securities LLC5,628$0.37M0.0%+76.5%0.012%
5/13/2021Barclays PLC23,506$1.54M0.0%+64.3%0.049%
5/13/2021Renaissance Technologies LLC113,712$7.43M0.0%N/A0.236%
5/13/2021Duality Advisers LP12,491$0.82M0.1%+162.0%0.026%
5/13/2021Amalgamated Bank3,474$0.23M0.0%-9.1%0.007%
5/13/2021Neuberger Berman Group LLC3,973$0.26M0.0%-5.8%0.008%
5/13/2021Bank of New York Mellon Corp401,504$26.23M0.0%-7.4%0.832%
5/13/2021Citigroup Inc.7,534$0.49M0.0%-32.0%0.016%
5/13/2021Fayez Sarofim & Co100,000$6.53M0.0%N/A0.207%
5/13/2021Bank of Montreal Can2,521$0.17M0.0%-54.6%0.005%
5/12/2021Northern Trust Corp302,049$19.73M0.0%-6.1%0.626%
5/12/2021Geode Capital Management LLC440,974$28.81M0.0%+9.8%0.914%
5/12/2021Prudential Financial Inc.3,878$0.25M0.0%-6.2%0.008%
5/12/2021JPMorgan Chase & Co.153,625$10.04M0.0%-8.6%0.319%
5/12/2021Sei Investments Co.153,107$10.08M0.0%+24.0%0.317%
5/12/2021Brinker Capital Investments LLC9,628$0.63M0.0%-16.9%0.020%
5/12/2021UBS Group AG20,144$1.32M0.0%+31.2%0.042%
5/11/2021Aigen Investment Management LP6,008$0.39M0.1%+73.6%0.012%
5/11/2021Horizon Kinetics Asset Management LLC67,503$4.41M0.1%+103.1%0.140%
5/11/2021GW&K Investment Management LLC495,577$32.38M0.3%+0.2%1.028%
5/11/2021Sage Financial Management Group Inc.421$28K0.0%N/A0.001%
5/10/2021Russell Investments Group Ltd.38,256$2.50M0.0%+1.1%0.079%
5/10/2021Wasatch Advisors Inc.1,766,140$115.38M0.5%-0.4%3.662%
5/10/2021Taylor Hoffman Wealth Management38,017$2.48M1.1%+3.0%0.079%
5/10/2021Moody Aldrich Partners LLC176,006$11.50M1.7%+54.6%0.365%
5/10/2021State Board of Administration of Florida Retirement System11,459$0.75M0.0%-33.0%0.024%
5/10/2021Principal Financial Group Inc.39,381$2.57M0.0%+8.5%0.082%
5/10/2021Winslow Asset Management Inc.114,854$7.50M1.5%-0.6%0.238%
5/7/2021BlackRock Inc.2,300,688$150.30M0.0%+3.2%4.770%
5/7/2021BNP Paribas Arbitrage SA3,594$0.24M0.0%-24.3%0.007%
5/7/2021Swiss National Bank54,600$3.57M0.0%+0.9%0.113%
5/7/2021IndexIQ Advisors LLC6,160$0.40M0.0%N/A0.013%
5/7/2021Fifth Third Bancorp492$32K0.0%-23.4%0.001%
5/6/2021O Shares Investment Advisers LLC12,018$0.79M0.1%+1.9%0.025%
5/6/2021Alliancebernstein L.P.37,131$2.43M0.0%-21.8%0.077%
5/6/2021Cannon Global Investment Management LLC4,200$0.27M0.5%N/A0.009%
5/5/2021Commerce Bank7,577$0.50M0.0%-6.0%0.016%
5/5/2021Congress Asset Management Co. MA91,307$5.97M0.1%+16.2%0.189%
5/5/2021Los Angeles Capital Management LLC35,555$2.32M0.0%-41.5%0.074%
5/4/2021Envestnet Asset Management Inc.80,432$5.26M0.0%+6.7%0.167%
5/4/2021Victory Capital Management Inc.6,605$0.43M0.0%-19.1%0.014%
5/3/2021The Manufacturers Life Insurance Company 14,363$0.94M0.0%-4.8%0.030%
5/3/2021Zurcher Kantonalbank Zurich Cantonalbank 2,589$0.17M0.0%-17.0%0.005%
4/28/2021Meeder Asset Management Inc.1,063$69K0.0%N/A0.002%
4/28/2021US Bancorp DE31,102$2.03M0.0%+51.0%0.064%
4/28/2021Hunter Perkins Capital Management LLC138,155$9.03M1.8%+49.1%0.286%
4/28/2021Comerica Bank3,417$0.24M0.0%-7.2%0.007%
4/27/2021United Capital Management of KS Inc.91,268$2.54M1.2%+12.4%0.189%
4/26/2021Copeland Capital Management LLC531,825$34.74M1.3%+2.4%1.103%
4/23/2021BBVA USA Bancshares Inc.9,804$0.64M0.0%-10.6%0.020%
4/23/2021Fieldpoint Private Securities LLC1,160$76K0.0%+167.3%0.002%
4/23/2021Strs Ohio16,400$1.07M0.0%+17.1%0.034%
4/21/2021Boston Trust Walden Corp640,480$41.84M0.4%+5.3%1.328%
4/19/2021Bartlett & Co. LLC1,556$0.10M0.0%-22.2%0.003%
4/14/2021FDx Advisors Inc.3,685$0.24M0.0%+34.9%0.008%
4/9/2021Scout Investments Inc.181,575$11.86M0.2%+9.8%0.376%
3/26/2021Susquehanna International Group LLP18,580$1.38M0.0%+16.1%0.039%
3/8/2021B. Metzler seel. Sohn & Co. Holding AG20,308$1.49M0.0%N/A0.042%
3/8/2021Dimensional Fund Advisors LP1,061,303$78.85M0.0%-1.1%2.201%
3/4/2021Eaton Vance Management512,245$38.06M0.1%+178.3%1.062%
3/2/2021Norges Bank287,936$21.39M0.0%N/A0.603%
3/1/2021UBS Asset Management Americas Inc.26,229$1.95M0.0%+4.0%0.055%
2/25/2021Dimensional Fund Advisors LP1,061,303$78.85M0.0%-1.1%2.221%
2/25/2021Hsbc Holdings PLC13,835$1.02M0.0%+20.8%0.029%
2/23/2021Principal Financial Group Inc.36,289$2.70M0.0%+31.4%0.076%
2/22/2021Aristotle Capital Boston LLC307,670$22.86M0.5%-15.5%0.644%
2/19/2021JPMorgan Chase & Co.168,168$12.49M0.0%+64.2%0.352%
2/18/2021Truist Financial Corp3,312$0.25M0.0%N/A0.007%
2/17/2021Jane Street Group LLC4,656$0.35M0.0%+24.9%0.010%
2/16/2021Zacks Investment Management9,655$0.72M0.0%N/A0.020%
2/16/2021Squarepoint Ops LLC4,054$0.30M0.0%-60.3%0.008%
2/16/2021Glenmede Trust Co. NA14,745$1.10M0.0%N/A0.031%
2/16/2021Morgan Stanley57,020$4.24M0.0%+208.2%0.119%
2/16/2021Tudor Investment Corp Et Al11,852$0.88M0.0%-9.8%0.025%
2/16/2021Nuveen Asset Management LLC262,084$19.47M0.0%+22.5%0.548%
2/16/2021Captrust Financial Advisors2,500$0.19M0.0%+12.5%0.005%
2/16/2021Price T Rowe Associates Inc. MD21,930$1.63M0.0%+17.2%0.046%
2/16/2021Engineers Gate Manager LP3,349$0.25M0.0%-14.6%0.007%
2/16/2021Janus Henderson Group PLC5,377$0.40M0.0%-19.2%0.011%
2/16/2021ExodusPoint Capital Management LP10,733$0.80M0.0%-11.0%0.022%
2/16/2021Charles Schwab Investment Management Inc.193,087$14.35M0.0%-3.0%0.404%
2/13/2021American International Group Inc.14,210$1.06M0.0%-2.8%0.030%
2/12/2021Beacon Pointe Advisors LLC2,776$0.21M0.0%N/A0.006%
2/12/2021Bamco Inc. NY2,459,604$182.75M0.5%-2.3%5.147%
2/12/2021CWM Advisors LLC5,022$0.37M0.1%N/A0.011%
2/12/2021The Manufacturers Life Insurance Company15,091$1.12M0.0%+2.7%0.032%
2/12/2021Credit Suisse AG19,774$1.47M0.0%-5.5%0.041%
2/12/2021Eaton Vance Management512,245$38.06M0.1%+178.3%1.072%
2/12/2021Kennedy Capital Management Inc.50,340$3.74M0.1%-0.4%0.105%
2/11/2021Lazard Asset Management LLC372$27K0.0%N/A0.001%
2/11/2021Northern Trust Corp321,836$23.91M0.0%-3.0%0.673%
2/11/2021Public Employees Retirement Association of Colorado4,597$0.34M0.0%-22.9%0.010%
(Data available from 1/1/2016 forward)

This page was last updated on 5/14/2021 by MarketBeat.com Staff
MarketBeat - Stock Market News and Research Tools logo

MarketBeat empowers individual investors to make better trading decisions by providing real-time financial data and objective market analysis. Whether you’re looking for analyst ratings, corporate buybacks, dividends, earnings, economic reports, financials, insider trades, IPOs, SEC filings or stock splits, MarketBeat has the objective information you need to analyze any stock. Learn more about MarketBeat.

MarketBeat is accredited by the Better Business Bureau

© American Consumer News, LLC dba MarketBeat® 2010-2021. All rights reserved.
326 E 8th St #105, Sioux Falls, SD 57103 | U.S. Based Support Team at [email protected] | (844) 978-6257
MarketBeat does not provide personalized financial advice and does not issue recommendations or offers to buy stock or sell any security.

Our Accessibility Statement | Terms of Service | Do Not Sell My Information

© 2021 Market data provided is at least 10-minutes delayed and hosted by Barchart Solutions. Information is provided 'as-is' and solely for informational purposes, not for trading purposes or advice, and is delayed. To see all exchange delays and terms of use please see disclaimer. Fundamental company data provided by Zacks Investment Research. As a bonus to opt-ing into our email newsletters, you will also get a free subscription to the Liberty Through Wealth e-newsletter. You can opt out at any time.